Humidity-temperature Sensor

Selected Measurement Type: Relative Humidity

 
Relative Humidity [%]     6 entries per hour
Showing data from 9/19/2022 (00:00:00 Z) to 9/12/2022 (00:01:00 Z)
Previous Next [ Day | 3-Days | 7-Days ]
First Last
Prev [ Day | 3-Days | 7-Days ] Next
First Last

Start Time:     :
End Time:     :     
Time (in GMT) :00 :50 :40 :30 :20 :10
Previous Next [ Day | 3-Days | 7-Days ]
First Last
Prev [ Day | 3-Days | 7-Days ] Next
First Last


123 => good data
MM => data is determined as missing
-- => data not received/configured
Back to Top Back to Top
9/19/2022 00:00 to 23:10 90.39 91.34 90.55 90.01 88.93 88.47
9/18/2022 23:00 to 22:10 88.61 89.82 90.09 90.79 91.82 91.50
9/18/2022 22:00 to 21:10 91.40 91.70 91.28 91.14 91.14 91.22
9/18/2022 21:00 to 20:10 91.54 92.39 93.32 94.00 94.21 93.96
9/18/2022 20:00 to 19:10 93.60 93.50 93.24 93.50 93.46 93.58
9/18/2022 19:00 to 18:10 93.88 93.94 93.88 94.33 94.33 94.39
9/18/2022 18:00 to 17:10 94.27 94.33 94.35 94.51 94.61 94.71
9/18/2022 17:00 to 16:10 94.59 94.45 94.45 94.55 94.39 93.92
9/18/2022 16:00 to 15:10 93.66 93.50 93.34 93.78 93.68 93.84
9/18/2022 15:00 to 14:10 94.37 93.78 93.66 93.16 93.04 92.93
9/18/2022 14:00 to 13:10 93.58 93.76 93.74 94.25 93.86 93.78
9/18/2022 13:00 to 12:10 93.76 94.04 94.29 94.09 94.23 94.27
9/18/2022 12:00 to 11:10 94.09 93.46 93.34 93.06 93.30 93.40
9/18/2022 11:00 to 10:10 94.31 95.58 95.86 95.64 95.42 95.26
9/18/2022 10:00 to 9:10 95.28 95.14 94.85 94.67 94.61 94.51
9/18/2022 09:00 to 8:10 94.71 94.79 94.95 95.64 95.86 95.90
9/18/2022 08:00 to 7:10 95.86 96.02 95.64 95.68 96.19 96.04
9/18/2022 07:00 to 6:10 95.98 95.68 95.34 94.91 94.51 94.59
9/18/2022 06:00 to 5:10 94.63 94.47 94.00 93.78 93.82 93.46
9/18/2022 05:00 to 4:10 93.38 92.99 93.16 93.42 92.77 93.26
9/18/2022 04:00 to 3:10 93.36 93.44 93.66 93.42 93.60 93.74
9/18/2022 03:00 to 2:10 93.72 93.26 93.44 93.52 93.32 92.99
9/18/2022 02:00 to 1:10 93.20 93.06 92.91 92.35 92.13 91.18
9/18/2022 01:00 to 0:10 89.58 88.73 88.96 89.22 89.18 88.67
9/18/2022 00:00 to 23:10 88.69 87.68 87.86 88.23 88.13 87.66
9/17/2022 23:00 to 22:10 88.07 87.86 88.61 89.06 87.93 87.52
9/17/2022 22:00 to 21:10 87.99 88.45 88.25 88.59 88.07 88.57
9/17/2022 21:00 to 20:10 89.24 89.96 90.79 91.18 91.36 91.80
9/17/2022 20:00 to 19:10 91.36 92.11 92.75 93.16 93.10 93.12
9/17/2022 19:00 to 18:10 93.38 93.50 93.24 93.12 93.04 92.85
9/17/2022 18:00 to 17:10 92.83 92.85 92.97 93.28 93.24 92.77
9/17/2022 17:00 to 16:10 92.35 92.51 92.95 93.08 92.45 92.31
9/17/2022 16:00 to 15:10 91.36 90.85 91.50 91.24 90.83 90.77
9/17/2022 15:00 to 14:10 91.08 91.00 91.24 91.82 92.21 91.82
9/17/2022 14:00 to 13:10 92.19 92.63 93.32 93.52 93.28 93.28
9/17/2022 13:00 to 12:10 93.10 93.22 93.32 93.36 93.20 93.20
9/17/2022 12:00 to 11:10 93.36 92.61 92.41 92.81 92.65 92.29
9/17/2022 11:00 to 10:10 92.63 92.95 93.24 93.50 93.42 92.91
9/17/2022 10:00 to 9:10 93.08 93.10 93.16 93.44 93.42 93.84
9/17/2022 09:00 to 8:10 94.09 94.07 93.52 93.06 92.55 92.61
9/17/2022 08:00 to 7:10 92.85 93.01 93.32 93.24 92.89 92.83
9/17/2022 07:00 to 6:10 92.47 91.44 91.36 90.85 91.22 91.00
9/17/2022 06:00 to 5:10 90.77 90.39 90.07 89.90 90.37 90.25
9/17/2022 05:00 to 4:10 90.47 91.00 90.79 90.47 89.58 88.65
9/17/2022 04:00 to 3:10 88.17 87.16 88.31 90.21 90.49 90.83
9/17/2022 03:00 to 2:10 90.83 91.32 91.50 90.77 90.57 90.37
9/17/2022 02:00 to 1:10 90.31 89.90 89.88 90.47 91.10 90.55
9/17/2022 01:00 to 0:10 90.29 90.07 89.20 88.59 88.07 87.48
9/17/2022 00:00 to 23:10 87.60 88.01 87.20 87.54 85.08 84.63
9/16/2022 23:00 to 22:10 84.25 86.13 85.38 86.43 86.98 87.02
9/16/2022 22:00 to 21:10 87.00 87.06 87.40 86.67 87.10 86.83
9/16/2022 21:00 to 20:10 85.78 85.80 85.91 85.28 85.62 85.28
9/16/2022 20:00 to 19:10 86.63 86.69 85.97 85.89 86.23 87.48
9/16/2022 19:00 to 18:10 88.63 88.47 88.23 88.51 89.06 89.64
9/16/2022 18:00 to 17:10 89.22 89.72 89.28 88.21 87.30 88.57
9/16/2022 17:00 to 16:10 89.30 92.59 93.92 94.19 94.69 94.97
9/16/2022 16:00 to 15:10 94.97 95.14 95.24 95.18 94.91 95.10
9/16/2022 15:00 to 14:10 95.48 95.76 95.62 95.64 95.70 95.26
9/16/2022 14:00 to 13:10 95.05 95.01 95.03 95.03 94.89 94.89
9/16/2022 13:00 to 12:10 94.67 94.11 94.33 94.29 94.21 93.96
9/16/2022 12:00 to 11:10 94.19 94.29 94.41 94.67 94.81 94.85
9/16/2022 11:00 to 10:10 95.01 95.10 95.34 95.14 95.20 95.22
9/16/2022 10:00 to 9:10 95.10 95.20 95.30 95.44 95.40 95.24
9/16/2022 09:00 to 8:10 95.12 95.26 95.28 95.42 95.52 95.28
9/16/2022 08:00 to 7:10 95.14 95.05 95.20 95.34 95.44 95.54
9/16/2022 07:00 to 6:10 95.58 95.42 95.24 94.95 94.81 94.79
9/16/2022 06:00 to 5:10 94.79 94.39 94.02 94.09 93.96 93.74
9/16/2022 05:00 to 4:10 93.42 93.44 93.04 92.93 92.59 92.43
9/16/2022 04:00 to 3:10 92.59 92.45 92.05 91.76 91.70 91.30
9/16/2022 03:00 to 2:10 91.30 90.61 90.45 90.71 90.45 90.61
9/16/2022 02:00 to 1:10 90.01 90.47 90.65 90.23 89.52 88.89
9/16/2022 01:00 to 0:10 88.49 87.46 86.49 86.05 85.70 85.42
9/16/2022 00:00 to 23:10 85.04 84.07 84.63 84.71 84.94 84.49
9/15/2022 23:00 to 22:10 85.70 85.32 85.06 83.89 84.53 83.44
9/15/2022 22:00 to 21:10 83.54 84.31 84.88 85.40 85.30 83.99
9/15/2022 21:00 to 20:10 84.81 84.49 86.49 86.89 87.84 88.01
9/15/2022 20:00 to 19:10 87.42 87.80 88.21 89.10 89.88 90.19
9/15/2022 19:00 to 18:10 91.56 91.76 92.37 92.57 92.59 92.53
9/15/2022 18:00 to 17:10 92.49 92.39 92.63 92.87 93.04 92.71
9/15/2022 17:00 to 16:10 92.63 92.37 92.19 92.23 92.51 92.85
9/15/2022 16:00 to 15:10 92.95 92.83 92.49 92.15 91.94 91.74
9/15/2022 15:00 to 14:10 92.21 92.21 92.53 92.45 92.09 91.92
9/15/2022 14:00 to 13:10 93.24 92.89 92.31 92.21 92.63 92.55
9/15/2022 13:00 to 12:10 92.37 92.69 93.40 93.01 92.81 93.34
9/15/2022 12:00 to 11:10 94.04 93.94 94.17 94.07 93.96 93.86
9/15/2022 11:00 to 10:10 93.90 94.33 94.11 94.19 94.39 95.03
9/15/2022 10:00 to 9:10 95.40 95.48 95.58 95.42 95.56 95.40
9/15/2022 09:00 to 8:10 95.44 95.56 95.56 95.48 95.38 95.70
9/15/2022 08:00 to 7:10 95.86 95.92 95.76 95.62 95.86 96.41
9/15/2022 07:00 to 6:10 96.43 96.19 96.02 95.88 95.54 95.22
9/15/2022 06:00 to 5:10 94.95 94.91 94.83 94.97 95.20 95.38
9/15/2022 05:00 to 4:10 95.16 94.73 94.57 94.53 94.49 94.45
9/15/2022 04:00 to 3:10 94.29 94.11 93.88 93.52 93.36 93.04
9/15/2022 03:00 to 2:10 92.77 92.49 92.17 91.88 91.88 90.69
9/15/2022 02:00 to 1:10 90.71 90.73 90.77 90.87 89.40 88.59
9/15/2022 01:00 to 0:10 87.36 86.75 85.32 88.11 89.76 89.94
9/15/2022 00:00 to 23:10 88.83 88.69 91.14 93.01 95.46 94.97
9/14/2022 23:00 to 22:10 94.97 92.21 93.62 92.97 91.68 91.92
9/14/2022 22:00 to 21:10 91.86 92.05 92.23 92.43 93.12 93.70
9/14/2022 21:00 to 20:10 93.94 93.98 93.80 93.70 93.70 94.69
9/14/2022 20:00 to 19:10 94.85 94.29 94.55 95.88 94.87 93.22
9/14/2022 19:00 to 18:10 92.35 91.48 92.45 93.52 93.72 93.94
9/14/2022 18:00 to 17:10 94.33 93.86 93.58 92.87 91.88 91.52
9/14/2022 17:00 to 16:10 92.15 92.85 94.49 95.66 95.36 92.77
9/14/2022 16:00 to 15:10 91.42 91.08 91.66 91.94 92.99 94.83
9/14/2022 15:00 to 14:10 96.17 97.58 98.39 98.79 99.26 99.20
9/14/2022 14:00 to 13:10 98.29 97.90 97.18 93.56 92.37 92.73
9/14/2022 13:00 to 12:10 93.86 94.43 94.31 94.45 94.63 94.95
9/14/2022 12:00 to 11:10 95.94 96.27 96.33 96.79 97.76 97.70
9/14/2022 11:00 to 10:10 98.71 98.63 98.87 98.45 97.94 99.01
9/14/2022 10:00 to 9:10 99.82 99.92 99.48 98.81 97.40 96.49
9/14/2022 09:00 to 8:10 95.52 95.12 94.23 93.44 92.93 92.67
9/14/2022 08:00 to 7:10 92.79 94.27 96.81 96.89 96.61 94.71
9/14/2022 07:00 to 6:10 91.02 89.36 89.08 89.60 90.77 90.59
9/14/2022 06:00 to 5:10 90.25 91.88 92.27 91.60 91.54 91.20
9/14/2022 05:00 to 4:10 90.11 88.01 90.01 91.72 91.98 92.45
9/14/2022 04:00 to 3:10 93.08 92.45 91.56 90.69 89.16 86.49
9/14/2022 03:00 to 2:10 88.96 92.35 94.65 94.97 89.86 90.07
9/14/2022 02:00 to 1:10 90.33 90.09 89.42 89.86 90.37 90.07
9/14/2022 01:00 to 0:10 89.24 89.56 90.51 89.96 89.54 88.85
9/14/2022 00:00 to 23:10 89.38 88.85 88.51 88.21 87.90 87.97
9/13/2022 23:00 to 22:10 88.05 87.22 87.00 87.38 86.75 88.21
9/13/2022 22:00 to 21:10 87.08 87.74 87.76 88.67 88.49 88.23
9/13/2022 21:00 to 20:10 88.07 87.04 87.86 87.99 87.22 87.95
9/13/2022 20:00 to 19:10 87.34 87.48 87.16 87.26 87.76 87.99
9/13/2022 19:00 to 18:10 89.88 89.74 90.47 91.14 90.91 90.35
9/13/2022 18:00 to 17:10 89.68 90.11 90.09 89.38 88.53 87.99
9/13/2022 17:00 to 16:10 87.22 86.01 85.18 81.52 82.37 90.85
9/13/2022 16:00 to 15:10 92.95 90.29 84.51 88.05 94.37 95.44
9/13/2022 15:00 to 14:10 94.83 94.49 95.96 97.70 98.19 96.47
9/13/2022 14:00 to 13:10 91.70 91.60 91.58 91.48 91.56 91.96
9/13/2022 13:00 to 12:10 91.78 91.56 92.19 93.56 94.23 95.64
9/13/2022 12:00 to 11:10 96.81 97.92 97.50 95.96 96.02 96.27
9/13/2022 11:00 to 10:10 96.67 97.18 97.58 96.81 94.21 94.31
9/13/2022 10:00 to 9:10 94.81 94.59 93.90 93.70 93.32 92.47
9/13/2022 09:00 to 8:10 91.32 91.82 92.05 92.03 92.41 92.93
9/13/2022 08:00 to 7:10 93.16 92.97 93.48 93.20 92.43 92.31
9/13/2022 07:00 to 6:10 93.08 95.30 94.19 93.82 93.10 92.39
9/13/2022 06:00 to 5:10 91.84 91.08 90.25 90.65 92.11 92.29
9/13/2022 05:00 to 4:10 91.84 92.53 91.48 90.13 91.20 91.92
9/13/2022 04:00 to 3:10 94.23 95.80 95.98 94.93 93.30 93.96
9/13/2022 03:00 to 2:10 95.36 96.35 96.43 96.29 96.06 95.74
9/13/2022 02:00 to 1:10 95.28 94.83 95.68 96.41 96.69 96.57
9/13/2022 01:00 to 0:10 96.65 96.43 96.55 96.83 94.93 93.74
9/13/2022 00:00 to 23:10 93.74 92.25 90.43 89.84 90.39 91.66
9/12/2022 23:00 to 22:10 92.53 92.19 91.82 91.32 91.04 91.10
9/12/2022 22:00 to 21:10 92.37 93.74 93.16 89.18 89.08 87.93
9/12/2022 21:00 to 20:10 87.28 86.61 86.09 85.34 84.98 84.57
9/12/2022 20:00 to 19:10 85.62 88.03 88.87 87.02 86.31 86.51
9/12/2022 19:00 to 18:10 87.00 86.79 86.13 87.54 88.83 89.34
9/12/2022 18:00 to 17:10 89.68 89.80 88.98 87.93 89.04 91.36
9/12/2022 17:00 to 16:10 93.10 94.35 94.65 94.67 94.07 92.61
9/12/2022 16:00 to 15:10 91.56 90.71 90.33 89.38 89.14 89.00
9/12/2022 15:00 to 14:10 89.44 89.60 89.32 89.34 89.26 88.49
9/12/2022 14:00 to 13:10 88.98 89.10 88.39 86.17 83.50 86.71
9/12/2022 13:00 to 12:10 89.00 89.86 89.38 86.73 85.66 90.49
9/12/2022 12:00 to 11:10 91.44 91.66 92.51 92.73 92.93 92.53
9/12/2022 11:00 to 10:10 92.55 92.55 92.23 91.94 91.46 91.88
9/12/2022 10:00 to 9:10 92.57 93.24 93.56 93.40 93.36 93.58
9/12/2022 09:00 to 8:10 93.22 93.16 93.26 93.58 93.80 93.94
9/12/2022 08:00 to 7:10 93.74 93.84 93.92 93.82 93.72 93.82
9/12/2022 07:00 to 6:10 94.19 94.09 94.15 94.19 93.96 93.44
9/12/2022 06:00 to 5:10 92.97 92.45 92.57 92.97 93.01 93.14
9/12/2022 05:00 to 4:10 93.16 92.79 92.67 92.71 92.51 92.21
9/12/2022 04:00 to 3:10 91.82 91.62 91.30 90.89 91.04 90.95
9/12/2022 03:00 to 2:10 90.71 90.37 90.21 90.17 90.13 89.99
9/12/2022 02:00 to 1:10 90.25 90.25 89.64 89.46 88.98 88.21
9/12/2022 01:00 to 0:10 88.51 87.16 86.37 86.63 86.79 87.99